Time;durP1;ratioP1;P1;durP2;ratioP2;P2;SDS_P1;SDS_P2;PMS_P1;PMS_P2;Temp;Humidity;BMP_temperature;BMP_pressure;BME280_temperature;BME280_humidity;BME280_pressure;Samples;Min_cycle;Max_cycle;Signal;HPM_P1;HPM_P2
2022/02/07 00:01:08;;;;;;;;;;;;;;;1.59;100.00;99312.41;5025284;28;19933;-87
2022/02/07 00:03:42;;;;;;;;;;;;;;;1.61;100.00;99305.56;5036166;28;19933;-86
2022/02/07 00:06:09;;;;;;;;;;;;;;;1.59;100.00;99314.97;5026842;28;19928;-85
2022/02/07 00:08:36;;;;;;;;;;;;;;;1.59;100.00;99323.59;5034607;28;19936;-85
2022/02/07 00:11:03;;;;;;;;;;;;;;;1.60;100.00;99327.03;5023976;28;19936;-86
2022/02/07 00:13:30;;;;;;;;;;;;;;;1.59;100.00;99341.66;5030150;28;19932;-87
2022/02/07 00:15:57;;;;;;;;;;;;;;;1.56;100.00;99349.34;5030606;28;20033;-85
2022/02/07 00:18:23;;;;;;;;;;;;;;;1.52;100.00;99349.34;5005592;28;20074;-85
2022/02/07 00:20:51;;;;;;;;;;;;;;;1.46;100.00;99355.31;5008035;28;20374;-86
2022/02/07 00:23:17;;;;;;;;;;;;;;;1.43;100.00;99368.19;5027211;28;19929;-88
2022/02/07 00:25:44;;;;;;;;;;;;;;;1.38;100.00;99373.28;5012845;28;20237;-86
2022/02/07 00:28:11;;;;;;;;;;;;;;;1.32;100.00;99381.84;5013193;28;20136;-84
2022/02/07 00:30:38;;;;;;;;;;;;;;;1.26;100.00;99392.09;5042258;28;19928;-86
2022/02/07 00:33:05;;;;;;;;;;;;;;;1.15;100.00;99399.75;5033259;28;19964;-85
2022/02/07 00:35:32;;;;;;;;;;;;;;;1.04;100.00;99411.66;5015361;28;19933;-84
2022/02/07 00:38:03;;;;;;;;;;;;;;;0.92;100.00;99403.84;5016078;28;19928;-84
2022/02/07 00:40:45;;;;;;;;;;;;;;;0.80;100.00;99415.75;5045896;28;19936;-86
2022/02/07 00:43:26;;;;;;;;;;;;;;;0.74;100.00;99418.25;5018015;28;19939;-85
2022/02/07 00:45:56;;;;;;;;;;;;;;;0.67;100.00;99429.34;5022566;28;19933;-82
2022/02/07 00:48:24;;;;;;;;;;;;;;;0.63;100.00;99435.31;5034085;28;20031;-85
2022/02/07 00:50:51;;;;;;;;;;;;;;;0.67;100.00;99438.78;5028801;28;20031;-84
2022/02/07 00:53:18;;;;;;;;;;;;;;;0.71;100.00;99445.69;5022936;28;19943;-84
2022/02/07 00:55:45;;;;;;;;;;;;;;;0.67;100.00;99444.78;5032755;28;19928;-83
2022/02/07 00:58:12;;;;;;;;;;;;;;;0.63;100.00;99449.03;5034885;28;20264;-87
2022/02/07 01:00:42;;;;;;;;;;;;;;;0.60;100.00;99446.44;5016808;28;19932;-86
2022/02/07 01:03:09;;;;;;;;;;;;;;;0.58;100.00;99453.25;5025872;28;19932;-84
2022/02/07 01:05:35;;;;;;;;;;;;;;;0.56;100.00;99475.56;5034816;28;19933;-86
2022/02/07 01:08:03;;;;;;;;;;;;;;;0.52;100.00;99458.34;5033839;28;19932;-86
2022/02/07 01:10:38;;;;;;;;;;;;;;;0.48;100.00;99475.47;5028685;28;19974;-85
2022/02/07 01:13:13;;;;;;;;;;;;;;;0.44;100.00;99484.00;5029656;28;19940;-84
2022/02/07 01:15:48;;;;;;;;;;;;;;;0.41;100.00;99503.69;5029676;28;19932;-84
2022/02/07 01:21:21;;;;;;;;;;;;;;;0.34;100.00;99520.78;5016343;28;19924;-88
2022/02/07 01:45:57;;;;;;;;;;;;;;;0.33;100.00;99534.47;5030391;28;20011;-84
2022/02/07 01:46:15;;;;;;;;;;;;;;;0.20;100.00;99602.06;5022035;28;19924;-83
2022/02/07 01:49:03;;;;;;;;;;;;;;;0.24;100.00;99620.13;5033225;28;19955;-85
2022/02/07 01:51:56;;;;;;;;;;;;;;;0.30;100.00;99627.97;5015593;28;19985;-86
2022/02/07 01:54:32;;;;;;;;;;;;;;;0.30;100.00;99634.81;5047640;28;19962;-88
2022/02/07 01:56:59;;;;;;;;;;;;;;;0.30;100.00;99642.53;5015198;28;19932;-85
2022/02/07 01:59:25;;;;;;;;;;;;;;;0.24;100.00;99647.59;5028635;28;19932;-84
2022/02/07 02:01:52;;;;;;;;;;;;;;;0.25;100.00;99657.03;5030978;28;19939;-85
2022/02/07 02:04:18;;;;;;;;;;;;;;;0.33;100.00;99663.19;5017522;28;20055;-86
2022/02/07 02:06:45;;;;;;;;;;;;;;;0.46;100.00;99672.84;5026630;28;19929;-84
2022/02/07 02:09:13;;;;;;;;;;;;;;;0.58;100.00;99679.03;5030817;28;19973;-84
2022/02/07 02:11:42;;;;;;;;;;;;;;;0.71;100.00;99683.53;5017038;28;21356;-86
2022/02/07 02:17:10;;;;;;;;;;;;;;;0.73;100.00;99691.28;5033707;28;20356;-83
2022/02/07 02:20:09;;;;;;;;;;;;;;;0.79;100.00;99704.25;5029232;28;19958;-85
2022/02/07 02:22:49;;;;;;;;;;;;;;;0.84;100.00;99710.34;5020312;28;20444;-84
2022/02/07 02:36:34;;;;;;;;;;;;;;;1.21;100.00;99738.38;5026515;28;19933;-84
2022/02/07 02:47:29;;;;;;;;;;;;;;;1.31;100.00;99766.03;5006600;28;20059;-84
2022/02/07 02:50:05;;;;;;;;;;;;;;;1.32;100.00;99775.50;5029829;28;19929;-86
2022/02/07 02:52:32;;;;;;;;;;;;;;;1.32;100.00;99773.78;5016328;28;19933;-86
2022/02/07 02:54:58;;;;;;;;;;;;;;;1.35;100.00;99779.84;5034477;28;19937;-88
2022/02/07 02:57:25;;;;;;;;;;;;;;;1.37;100.00;99788.44;5029085;28;19932;-86
2022/02/07 02:59:51;;;;;;;;;;;;;;;1.43;100.00;99801.44;5040300;28;19932;-87
2022/02/07 03:02:18;;;;;;;;;;;;;;;1.48;100.00;99815.25;5029353;28;19936;-87
2022/02/07 03:04:45;;;;;;;;;;;;;;;1.53;100.00;99807.59;5028241;28;19939;-87
2022/02/07 03:07:11;;;;;;;;;;;;;;;1.51;100.00;99817.03;5007787;28;19995;-87
2022/02/07 03:09:46;;;;;;;;;;;;;;;1.49;100.00;99828.19;5030726;28;19933;-87
2022/02/07 03:12:13;;;;;;;;;;;;;;;1.52;100.00;99847.13;5042865;28;20038;-85
2022/02/07 03:14:44;;;;;;;;;;;;;;;1.49;100.00;99846.22;5035843;28;20066;-86
2022/02/07 03:17:09;;;;;;;;;;;;;;;1.48;100.00;99843.63;5014958;28;20014;-83
2022/02/07 03:19:36;;;;;;;;;;;;;;;1.42;100.00;99843.53;5036616;28;20022;-84
2022/02/07 03:22:03;;;;;;;;;;;;;;;1.39;100.00;99857.25;5036603;28;20008;-88
2022/02/07 03:24:29;;;;;;;;;;;;;;;1.37;100.00;99863.22;5018190;28;19932;-83
2022/02/07 03:26:56;;;;;;;;;;;;;;;1.39;100.00;99874.44;5023930;28;19933;-87
2022/02/07 03:29:22;;;;;;;;;;;;;;;1.32;100.00;99868.31;5023176;28;19932;-84
2022/02/07 03:31:49;;;;;;;;;;;;;;;1.33;100.00;99880.38;5032767;28;20311;-84
2022/02/07 03:34:16;;;;;;;;;;;;;;;1.34;100.00;99891.56;5036231;28;19951;-83
2022/02/07 03:36:42;;;;;;;;;;;;;;;1.35;100.00;99899.31;5016703;28;19940;-86
2022/02/07 03:39:10;;;;;;;;;;;;;;;1.34;100.00;99894.97;5019362;28;19946;-84
2022/02/07 03:41:39;;;;;;;;;;;;;;;1.36;100.00;99895.03;5036324;28;19935;-86
2022/02/07 03:44:06;;;;;;;;;;;;;;;1.40;100.00;99905.41;5032697;28;19932;-83
2022/02/07 03:46:33;;;;;;;;;;;;;;;1.41;100.00;99917.47;5041424;28;19955;-83
2022/02/07 03:48:59;;;;;;;;;;;;;;;1.34;100.00;99909.59;5041696;28;19975;-84
2022/02/07 03:51:26;;;;;;;;;;;;;;;1.23;100.00;99918.03;5030844;28;19936;-85
2022/02/07 03:53:52;;;;;;;;;;;;;;;1.23;100.00;99932.63;5035551;28;20063;-86
2022/02/07 03:56:19;;;;;;;;;;;;;;;1.23;100.00;99920.59;5020722;28;20025;-85
2022/02/07 03:58:50;;;;;;;;;;;;;;;1.23;100.00;99945.53;5036466;28;19933;-84
2022/02/07 04:01:19;;;;;;;;;;;;;;;1.23;100.00;99948.09;5023769;28;19928;-87
2022/02/07 04:03:46;;;;;;;;;;;;;;;1.23;100.00;99948.09;5035993;28;19932;-86
2022/02/07 04:06:16;;;;;;;;;;;;;;;1.29;100.00;99949.06;5045219;28;20029;-88
2022/02/07 04:08:45;;;;;;;;;;;;;;;1.31;100.00;99951.69;5032244;28;19928;-84
2022/02/07 04:11:18;;;;;;;;;;;;;;;1.37;100.00;99962.09;5036684;28;19928;-87
2022/02/07 04:13:50;;;;;;;;;;;;;;;1.41;100.00;99961.31;5035993;28;20379;-85
2022/02/07 04:16:16;;;;;;;;;;;;;;;1.47;100.00;99976.00;5035166;28;19939;-83
2022/02/07 04:18:54;;;;;;;;;;;;;;;1.51;100.00;99970.06;5034721;28;19933;-87
2022/02/07 04:21:21;;;;;;;;;;;;;;;1.56;100.00;99978.75;5019545;28;19939;-85
2022/02/07 04:23:47;;;;;;;;;;;;;;;1.57;100.00;99983.06;5019489;28;19936;-86
2022/02/07 04:26:14;;;;;;;;;;;;;;;1.51;100.00;99984.69;5046661;28;20027;-84
2022/02/07 04:28:40;;;;;;;;;;;;;;;1.41;100.00;99993.94;5023497;28;19940;-86
2022/02/07 04:31:07;;;;;;;;;;;;;;;1.34;100.00;100008.44;5034437;28;20006;-85
2022/02/07 04:33:33;;;;;;;;;;;;;;;1.33;100.00;100009.31;5018012;28;20027;-88
2022/02/07 04:36:00;;;;;;;;;;;;;;;1.35;100.00;100009.34;5036355;28;20402;-84
2022/02/07 04:38:26;;;;;;;;;;;;;;;1.36;100.00;100017.09;5038482;28;19943;-86
2022/02/07 04:40:53;;;;;;;;;;;;;;;1.41;100.00;100037.78;5010534;28;19932;-86
2022/02/07 04:43:20;;;;;;;;;;;;;;;1.50;100.00;100050.88;5018730;28;19959;-83
2022/02/07 04:45:57;;;;;;;;;;;;;;;1.55;100.00;100063.84;5015089;28;19933;-86
2022/02/07 04:48:43;;;;;;;;;;;;;;;1.61;100.00;100071.72;5019509;28;19932;-85
2022/02/07 04:59:25;;;;;;;;;;;;;;;1.93;100.00;100130.75;5052307;28;19946;-83
2022/02/07 05:01:55;;;;;;;;;;;;;;;2.03;100.00;100142.97;5045506;28;19932;-86
2022/02/07 05:04:28;;;;;;;;;;;;;;;2.10;100.00;100146.53;5056993;28;20054;-87
2022/02/07 05:15:10;;;;;;;;;;;;;;;2.27;100.00;100175.25;4990273;28;20043;-83
2022/02/07 05:17:39;;;;;;;;;;;;;;;2.29;100.00;100192.53;4998684;28;19933;-83
2022/02/07 05:20:07;;;;;;;;;;;;;;;2.29;100.00;100195.09;4991207;28;19964;-84
2022/02/07 05:22:43;;;;;;;;;;;;;;;2.25;100.00;100189.84;5001565;28;19937;-83
2022/02/07 05:25:30;;;;;;;;;;;;;;;2.23;100.00;100217.34;5015566;28;20048;-85
2022/02/07 05:27:56;;;;;;;;;;;;;;;2.21;100.00;100227.66;5008705;28;19940;-82
2022/02/07 05:30:23;;;;;;;;;;;;;;;2.14;100.00;100231.84;5018350;28;19944;-87
2022/02/07 05:32:50;;;;;;;;;;;;;;;2.06;100.00;100237.69;5010999;28;20624;-84
2022/02/07 05:35:26;;;;;;;;;;;;;;;2.01;100.00;100247.94;4997859;28;19929;-84
2022/02/07 05:37:57;;;;;;;;;;;;;;;1.95;100.00;100255.56;5034412;28;19933;-84
2022/02/07 05:40:30;;;;;;;;;;;;;;;1.92;100.00;100266.69;5019985;28;19933;-88
2022/02/07 05:42:57;;;;;;;;;;;;;;;1.90;100.00;100270.09;5012411;28;19929;-87
2022/02/07 05:45:24;;;;;;;;;;;;;;;1.85;100.00;100282.88;4990321;28;19933;-87
2022/02/07 05:47:53;;;;;;;;;;;;;;;1.83;100.00;100291.47;5031582;28;19941;-84
2022/02/07 05:50:20;;;;;;;;;;;;;;;1.77;100.00;100299.94;5016388;28;19935;-82
2022/02/07 05:52:52;;;;;;;;;;;;;;;1.83;100.00;100318.13;4994018;28;19929;-84
2022/02/07 05:55:19;;;;;;;;;;;;;;;1.90;100.00;100314.84;4999074;28;20016;-83
2022/02/07 05:57:45;;;;;;;;;;;;;;;1.96;100.00;100330.47;5000620;28;19933;-85
2022/02/07 06:00:12;;;;;;;;;;;;;;;1.94;100.00;100323.53;5009468;28;19933;-84
2022/02/07 06:02:39;;;;;;;;;;;;;;;1.88;100.00;100325.97;4999784;28;19971;-84
2022/02/07 06:05:06;;;;;;;;;;;;;;;1.81;100.00;100335.28;5013502;28;19940;-86
2022/02/07 06:07:33;;;;;;;;;;;;;;;1.73;100.00;100345.44;5017340;28;19933;-83
2022/02/07 06:10:03;;;;;;;;;;;;;;;1.70;100.00;100354.84;5030417;28;19968;-84
2022/02/07 06:12:34;;;;;;;;;;;;;;;1.66;100.00;100351.31;5026024;28;19933;-83
2022/02/07 06:15:01;;;;;;;;;;;;;;;1.66;100.00;100371.97;5007575;28;19929;-84
2022/02/07 06:17:27;;;;;;;;;;;;;;;1.67;100.00;100385.72;5014075;28;19933;-84
2022/02/07 06:19:58;;;;;;;;;;;;;;;1.74;100.00;100388.47;5016725;28;19932;-87
2022/02/07 06:22:25;;;;;;;;;;;;;;;1.85;100.00;100393.88;5012648;28;19933;-85
2022/02/07 06:24:57;;;;;;;;;;;;;;;1.97;100.00;100403.63;5009534;28;19979;-86
2022/02/07 06:27:37;;;;;;;;;;;;;;;2.07;100.00;100413.28;5035895;28;20421;-85
2022/02/07 06:30:10;;;;;;;;;;;;;;;2.14;100.00;100419.50;5053450;28;19944;-84
2022/02/07 06:32:41;;;;;;;;;;;;;;;2.17;100.00;100427.28;5054223;28;19940;-83
2022/02/07 06:35:15;;;;;;;;;;;;;;;2.22;100.00;100430.00;5021456;28;19929;-84
2022/02/07 06:37:44;;;;;;;;;;;;;;;2.29;100.00;100431.84;5032970;28;19933;-84
2022/02/07 06:40:11;;;;;;;;;;;;;;;2.36;100.00;100440.59;5021887;28;19931;-87
2022/02/07 06:42:40;;;;;;;;;;;;;;;2.35;100.00;100442.31;5041399;28;19933;-82
2022/02/07 06:45:07;;;;;;;;;;;;;;;2.39;100.00;100451.88;5044153;28;20899;-84
2022/02/07 06:47:39;;;;;;;;;;;;;;;2.42;100.00;100461.41;5045766;28;19939;-83
2022/02/07 06:50:07;;;;;;;;;;;;;;;2.44;100.00;100467.47;5037954;28;19941;-85
2022/02/07 06:52:43;;;;;;;;;;;;;;;2.44;100.00;100475.22;5040478;28;19933;-88
2022/02/07 06:55:16;;;;;;;;;;;;;;;2.43;100.00;100476.06;5031207;28;19962;-84
2022/02/07 06:57:43;;;;;;;;;;;;;;;2.41;100.00;100493.22;5034678;28;20455;-86
2022/02/07 07:00:14;;;;;;;;;;;;;;;2.36;100.00;100489.66;5039065;28;19929;-85
2022/02/07 07:02:43;;;;;;;;;;;;;;;2.36;100.00;100500.91;5023087;28;20486;-86
2022/02/07 07:05:13;;;;;;;;;;;;;;;2.41;100.00;100513.91;5046068;28;19959;-84
2022/02/07 07:07:40;;;;;;;;;;;;;;;2.48;100.00;100533.88;5026458;28;19964;-85
2022/02/07 07:10:08;;;;;;;;;;;;;;;2.47;100.00;100535.56;5059589;28;19978;-85
2022/02/07 07:12:38;;;;;;;;;;;;;;;2.48;100.00;100536.47;5028153;28;19964;-85
2022/02/07 07:15:10;;;;;;;;;;;;;;;2.54;100.00;100546.06;5023594;28;19935;-86
2022/02/07 07:17:39;;;;;;;;;;;;;;;2.61;100.00;100547.94;5035896;28;19939;-86
2022/02/07 07:20:11;;;;;;;;;;;;;;;2.71;100.00;100567.09;5025259;28;19960;-84
2022/02/07 07:22:38;;;;;;;;;;;;;;;2.76;100.00;100562.91;5040618;28;19955;-86
2022/02/07 07:25:13;;;;;;;;;;;;;;;2.82;100.00;100565.63;5042359;28;19940;-85
2022/02/07 07:27:55;;;;;;;;;;;;;;;2.86;100.00;100579.50;5044890;28;19976;-84
2022/02/07 07:30:33;;;;;;;;;;;;;;;2.85;100.00;100581.19;5022383;28;19971;-85
2022/02/07 07:33:06;;;;;;;;;;;;;;;2.87;100.00;100609.66;5048917;28;19980;-87
2022/02/07 07:35:57;;;;;;;;;;;;;;;2.86;100.00;100623.44;5034179;28;19987;-87
2022/02/07 07:38:25;;;;;;;;;;;;;;;2.86;100.00;100626.88;5024399;28;20225;-86
2022/02/07 07:40:55;;;;;;;;;;;;;;;2.87;100.00;100630.34;5020852;28;20082;-84
2022/02/07 07:43:25;;;;;;;;;;;;;;;2.90;100.00;100645.94;5016793;28;19933;-84
2022/02/07 07:46:02;;;;;;;;;;;;;;;2.87;100.00;100651.03;5037806;28;19935;-83
2022/02/07 07:48:35;;;;;;;;;;;;;;;2.88;100.00;100669.19;5018535;28;19933;-87
2022/02/07 07:51:06;;;;;;;;;;;;;;;2.91;100.00;100658.03;5038895;28;19933;-82
2022/02/07 07:53:48;;;;;;;;;;;;;;;2.98;100.00;100663.34;5029525;28;19932;-83
2022/02/07 08:01:53;;;;;;;;;;;;;;;3.03;100.00;100678.97;5033326;28;20000;-86
2022/02/07 08:04:25;;;;;;;;;;;;;;;3.12;100.00;100680.91;5014056;28;19941;-84
2022/02/07 08:06:57;;;;;;;;;;;;;;;3.07;100.00;100678.19;5003861;28;19933;-86
2022/02/07 08:09:45;;;;;;;;;;;;;;;2.98;100.00;100685.75;5024035;28;19941;-86
2022/02/07 08:12:13;;;;;;;;;;;;;;;2.85;100.00;100691.50;5012906;28;21288;-87
2022/02/07 08:14:40;;;;;;;;;;;;;;;2.78;100.00;100695.66;5020188;28;20015;-85
2022/02/07 08:17:08;;;;;;;;;;;;;;;2.80;100.00;100709.47;5020766;28;19932;-85
2022/02/07 08:19:37;;;;;;;;;;;;;;;2.80;100.00;100700.03;4999210;28;19929;-87
2022/02/07 08:22:05;;;;;;;;;;;;;;;2.84;100.00;100698.34;5033950;28;19929;-85
2022/02/07 08:24:31;;;;;;;;;;;;;;;2.97;100.00;100710.75;5017412;28;20039;-85
2022/02/07 08:26:59;;;;;;;;;;;;;;;3.08;100.00;100699.78;4998125;28;19929;-85
2022/02/07 08:29:25;;;;;;;;;;;;;;;3.06;100.00;100710.06;5016189;28;19929;-87
2022/02/07 08:31:51;;;;;;;;;;;;;;;3.09;100.00;100714.44;5020019;28;20299;-87
2022/02/07 08:34:18;;;;;;;;;;;;;;;3.30;100.00;100722.69;5013663;28;19929;-87
2022/02/07 08:36:44;;;;;;;;;;;;;;;3.51;100.00;100734.34;5003927;28;20425;-86
2022/02/07 08:39:13;;;;;;;;;;;;;;;3.60;100.00;100739.72;4996400;28;20462;-84
2022/02/07 08:41:42;;;;;;;;;;;;;;;3.69;100.00;100745.91;5020511;28;19932;-87
2022/02/07 08:44:09;;;;;;;;;;;;;;;3.74;100.00;100752.06;5005165;28;20380;-85
2022/02/07 08:46:35;;;;;;;;;;;;;;;3.82;100.00;100768.66;5001786;28;19933;-87
2022/02/07 08:49:03;;;;;;;;;;;;;;;3.87;100.00;100773.91;5002919;28;19936;-86
2022/02/07 08:51:32;;;;;;;;;;;;;;;4.03;100.00;100777.66;5035566;28;19990;-86
2022/02/07 08:54:04;;;;;;;;;;;;;;;4.11;98.20;100787.34;4980018;28;19933;-86
2022/02/07 08:56:42;;;;;;;;;;;;;;;4.01;98.93;100798.38;5021512;28;19933;-86
2022/02/07 08:59:11;;;;;;;;;;;;;;;3.80;99.89;100804.84;5022862;28;19933;-87
2022/02/07 09:01:50;;;;;;;;;;;;;;;3.61;100.00;100844.13;5038765;28;20394;-87
2022/02/07 09:04:43;;;;;;;;;;;;;;;3.44;100.00;100877.38;5023447;28;19982;-87
2022/02/07 09:07:14;;;;;;;;;;;;;;;3.23;100.00;100872.56;5019904;28;19940;-87
2022/02/07 09:09:43;;;;;;;;;;;;;;;3.07;100.00;100866.16;5003153;28;20458;-87
2022/02/07 09:12:10;;;;;;;;;;;;;;;2.97;100.00;100858.16;5009372;28;20763;-88
2022/02/07 09:14:43;;;;;;;;;;;;;;;2.92;100.00;100858.84;4986543;28;19936;-86
2022/02/07 09:17:10;;;;;;;;;;;;;;;2.85;100.00;100856.97;4983857;28;19933;-86
2022/02/07 09:19:37;;;;;;;;;;;;;;;2.77;100.00;100860.22;4981995;28;19933;-86
2022/02/07 09:22:05;;;;;;;;;;;;;;;2.73;100.00;100884.25;4998772;28;20119;-86
2022/02/07 09:24:32;;;;;;;;;;;;;;;2.72;100.00;100894.53;5000355;28;20036;-86
2022/02/07 09:26:58;;;;;;;;;;;;;;;2.77;100.00;100898.13;4983134;28;20595;-86
2022/02/07 09:29:25;;;;;;;;;;;;;;;2.87;100.00;100915.66;5000236;28;19933;-86
2022/02/07 09:31:52;;;;;;;;;;;;;;;2.87;100.00;100904.41;4980993;28;20035;-86
2022/02/07 09:34:18;;;;;;;;;;;;;;;2.84;100.00;100900.03;4997604;28;20081;-87
2022/02/07 09:36:45;;;;;;;;;;;;;;;2.77;100.00;100909.34;4977295;28;19964;-87
2022/02/07 09:39:11;;;;;;;;;;;;;;;2.74;100.00;100921.31;5002328;28;19940;-86
2022/02/07 09:41:39;;;;;;;;;;;;;;;2.74;100.00;100926.50;4984764;28;20771;-85
2022/02/07 09:44:07;;;;;;;;;;;;;;;2.78;100.00;100941.25;4973856;28;19976;-85
2022/02/07 09:46:44;;;;;;;;;;;;;;;2.88;100.00;100948.44;4995808;28;20017;-86
2022/02/07 09:49:12;;;;;;;;;;;;;;;3.00;100.00;100945.28;4997260;28;19956;-85
2022/02/07 09:51:42;;;;;;;;;;;;;;;3.09;100.00;100961.06;4979173;28;20061;-86
2022/02/07 09:54:09;;;;;;;;;;;;;;;3.19;100.00;100962.16;4986248;28;20407;-87
2022/02/07 09:56:35;;;;;;;;;;;;;;;3.32;100.00;100963.34;4993071;28;20014;-87
2022/02/07 09:59:02;;;;;;;;;;;;;;;3.40;100.00;100976.50;4997878;28;19951;-86
2022/02/07 10:01:34;;;;;;;;;;;;;;;3.49;100.00;100984.47;4999449;28;19933;-85
2022/02/07 10:04:05;;;;;;;;;;;;;;;3.59;100.00;100989.06;4981207;28;19940;-87
2022/02/07 10:09:38;;;;;;;;;;;;;;;3.88;97.05;101000.97;5008573;28;19936;-86
2022/02/07 10:12:22;;;;;;;;;;;;;;;4.00;95.04;101008.16;5023138;28;19940;-87
2022/02/07 10:15:05;;;;;;;;;;;;;;;4.16;92.63;101017.16;5020785;28;22829;-85
2022/02/07 10:17:43;;;;;;;;;;;;;;;4.35;92.45;101032.28;5001256;28;20994;-85
2022/02/07 10:20:55;;;;;;;;;;;;;;;4.75;90.84;101035.75;5018432;28;19933;-86
2022/02/07 10:37:57;;;;;;;;;;;;;;;5.78;79.45;101049.81;5026810;28;20074;-85
2022/02/07 10:40:33;;;;;;;;;;;;;;;5.83;78.78;101075.00;5018839;28;19936;-86
2022/02/07 10:43:22;;;;;;;;;;;;;;;5.84;77.64;101068.94;5008831;28;20515;-86
2022/02/07 10:46:06;;;;;;;;;;;;;;;5.75;77.75;101072.25;5030421;28;19959;-86
2022/02/07 10:48:36;;;;;;;;;;;;;;;5.55;74.91;101080.56;5014861;28;19933;-86
2022/02/07 10:51:17;;;;;;;;;;;;;;;5.36;75.55;101088.84;5014793;28;19940;-85
2022/02/07 10:53:47;;;;;;;;;;;;;;;5.15;75.04;101079.81;4992635;28;19965;-85
2022/02/07 10:56:15;;;;;;;;;;;;;;;4.99;76.13;101069.97;4993195;28;21521;-86
2022/02/07 10:58:42;;;;;;;;;;;;;;;4.87;78.28;101078.38;5014095;28;19936;-86
2022/02/07 11:01:15;;;;;;;;;;;;;;;4.77;78.48;101077.28;4994169;28;20347;-85
2022/02/07 11:03:46;;;;;;;;;;;;;;;4.78;79.50;101094.59;5009986;28;19933;-85
2022/02/07 11:06:16;;;;;;;;;;;;;;;4.75;79.54;101090.22;5000590;28;19933;-84
2022/02/07 11:08:52;;;;;;;;;;;;;;;4.77;79.59;101100.63;5011003;28;21335;-86
2022/02/07 11:12:07;;;;;;;;;;;;;;;4.79;79.32;101099.81;5003002;28;20194;-86
2022/02/07 11:14:41;;;;;;;;;;;;;;;4.83;79.82;101105.94;5006070;28;19940;-84
2022/02/07 11:17:27;;;;;;;;;;;;;;;4.86;79.49;101103.41;5010157;28;19929;-85
2022/02/07 11:20:04;;;;;;;;;;;;;;;4.90;78.90;101120.81;5011493;28;19929;-85
2022/02/07 11:22:48;;;;;;;;;;;;;;;4.92;78.66;101116.53;5014533;28;20460;-86
2022/02/07 11:25:28;;;;;;;;;;;;;;;4.98;78.75;101131.38;5015967;28;19933;-85
2022/02/07 11:27:58;;;;;;;;;;;;;;;5.05;78.17;101116.81;5025654;28;19933;-87
2022/02/07 11:30:57;;;;;;;;;;;;;;;5.15;77.48;101123.94;5001055;28;19940;-86
2022/02/07 11:33:33;;;;;;;;;;;;;;;5.34;75.06;101121.72;5000633;28;20028;-86
2022/02/07 11:36:00;;;;;;;;;;;;;;;5.57;75.40;101130.81;4998958;28;19949;-86
2022/02/07 11:38:26;;;;;;;;;;;;;;;5.86;74.24;101127.91;5022973;28;20011;-86
2022/02/07 11:40:56;;;;;;;;;;;;;;;6.02;73.42;101126.47;5015123;28;20082;-85
2022/02/07 11:43:29;;;;;;;;;;;;;;;6.09;73.53;101125.75;5019094;28;20015;-86
2022/02/07 11:46:06;;;;;;;;;;;;;;;6.24;72.84;101121.63;4995966;28;19979;-87
2022/02/07 11:48:42;;;;;;;;;;;;;;;6.49;71.60;101128.09;5020208;28;19940;-85
2022/02/07 11:51:22;;;;;;;;;;;;;;;6.69;69.37;101132.72;5003114;28;19982;-85
2022/02/07 11:53:57;;;;;;;;;;;;;;;6.72;69.51;101130.19;5026362;28;20324;-86
2022/02/07 11:56:29;;;;;;;;;;;;;;;6.61;68.28;101143.91;5001278;28;19929;-85
2022/02/07 11:59:01;;;;;;;;;;;;;;;6.62;69.37;101147.38;5016336;28;19940;-86
2022/02/07 12:01:54;;;;;;;;;;;;;;;6.50;69.49;101148.06;5012356;28;19929;-86
2022/02/07 12:04:43;;;;;;;;;;;;;;;6.38;69.41;101158.28;5018100;28;20614;-88
2022/02/07 12:07:18;;;;;;;;;;;;;;;6.33;69.54;101162.53;5002158;28;20043;-85
2022/02/07 12:10:03;;;;;;;;;;;;;;;6.21;71.58;101158.84;5005258;28;19939;-85
2022/02/07 12:12:33;;;;;;;;;;;;;;;6.08;72.90;101173.38;5010879;28;19935;-86
2022/02/07 12:15:04;;;;;;;;;;;;;;;5.86;74.27;101207.56;5018830;28;20039;-87
2022/02/07 12:17:42;;;;;;;;;;;;;;;5.72;75.24;101251.47;5005574;28;20010;-87
2022/02/07 12:20:13;;;;;;;;;;;;;;;5.28;81.74;101299.88;5018522;28;19937;-86
2022/02/07 12:22:58;;;;;;;;;;;;;;;4.38;84.71;101282.91;5000128;28;19974;-86
2022/02/07 12:25:45;;;;;;;;;;;;;;;3.50;90.58;101290.81;5015385;28;20724;-86
2022/02/07 12:28:19;;;;;;;;;;;;;;;2.96;94.24;101283.13;5035580;28;20316;-86
2022/02/07 12:30:58;;;;;;;;;;;;;;;2.65;98.17;101289.84;4997100;28;20634;-86
2022/02/07 12:33:25;;;;;;;;;;;;;;;2.48;98.69;101288.44;5019789;28;19939;-85
2022/02/07 12:35:54;;;;;;;;;;;;;;;2.35;100.00;101279.38;5017505;28;19933;-85
2022/02/07 12:38:22;;;;;;;;;;;;;;;2.29;100.00;101272.28;4992452;28;19943;-85
2022/02/07 12:40:50;;;;;;;;;;;;;;;2.24;100.00;101272.94;5015800;28;19936;-86
2022/02/07 12:43:20;;;;;;;;;;;;;;;2.25;100.00;101269.53;5003554;28;19933;-84
2022/02/07 12:45:47;;;;;;;;;;;;;;;2.26;100.00;101264.41;5018510;28;19928;-87
2022/02/07 12:48:22;;;;;;;;;;;;;;;2.32;100.00;101261.16;5000895;28;20086;-85
2022/02/07 12:50:51;;;;;;;;;;;;;;;2.40;100.00;101248.50;5010793;28;19940;-86
2022/02/07 12:53:21;;;;;;;;;;;;;;;2.51;100.00;101252.34;4997221;28;19933;-85
2022/02/07 12:55:55;;;;;;;;;;;;;;;2.60;100.00;101244.88;5002087;28;20403;-86
2022/02/07 12:58:25;;;;;;;;;;;;;;;2.72;100.00;101256.47;5012539;28;19983;-87
2022/02/07 13:00:55;;;;;;;;;;;;;;;2.85;100.00;101256.03;5016425;28;19937;-86
2022/02/07 13:03:21;;;;;;;;;;;;;;;2.97;100.00;101261.59;5013969;28;19940;-84
2022/02/07 13:05:49;;;;;;;;;;;;;;;3.12;100.00;101262.91;5000082;28;19990;-84
2022/02/07 13:08:17;;;;;;;;;;;;;;;3.29;100.00;101266.91;5006230;28;19929;-85
2022/02/07 13:10:56;;;;;;;;;;;;;;;3.64;100.00;101266.22;5004594;28;20417;-85
2022/02/07 13:13:38;;;;;;;;;;;;;;;4.13;98.75;101266.72;4990034;28;19932;-85
2022/02/07 13:16:05;;;;;;;;;;;;;;;4.70;95.52;101277.69;5019070;28;19933;-85
2022/02/07 13:18:34;;;;;;;;;;;;;;;5.09;90.34;101276.91;5025073;28;19928;-86
2022/02/07 13:21:07;;;;;;;;;;;;;;;5.34;88.21;101275.75;5024835;28;20027;-84
2022/02/07 13:23:33;;;;;;;;;;;;;;;5.41;87.64;101288.03;5003399;28;19932;-85
2022/02/07 13:26:02;;;;;;;;;;;;;;;5.31;87.64;101291.28;5026136;28;19938;-86
2022/02/07 13:28:31;;;;;;;;;;;;;;;5.17;87.66;101311.69;5005050;28;19980;-85
2022/02/07 13:31:02;;;;;;;;;;;;;;;5.09;88.06;101313.25;5034771;28;20434;-87
2022/02/07 13:33:28;;;;;;;;;;;;;;;5.17;87.67;101322.09;5009777;28;19928;-85
2022/02/07 13:35:56;;;;;;;;;;;;;;;5.17;85.61;101334.19;5006511;28;19936;-86
2022/02/07 13:38:24;;;;;;;;;;;;;;;5.13;85.58;101341.88;5008041;28;19933;-87
2022/02/07 13:40:53;;;;;;;;;;;;;;;5.11;85.60;101347.88;5027157;28;19936;-86
2022/02/07 13:43:29;;;;;;;;;;;;;;;5.03;84.99;101367.59;5012951;28;19928;-86
2022/02/07 13:46:02;;;;;;;;;;;;;;;5.04;85.57;101369.34;5042735;28;19929;-85
2022/02/07 13:48:29;;;;;;;;;;;;;;;5.18;86.08;101362.78;5021171;28;19988;-85
2022/02/07 13:50:58;;;;;;;;;;;;;;;5.28;84.76;101366.50;5024306;28;20459;-86
2022/02/07 13:53:26;;;;;;;;;;;;;;;5.24;85.90;101373.31;5025425;28;20206;-85
2022/02/07 13:55:58;;;;;;;;;;;;;;;5.11;86.87;101376.44;5001832;28;20126;-85
2022/02/07 13:58:44;;;;;;;;;;;;;;;4.97;88.36;101381.28;5024685;28;19943;-83
2022/02/07 14:03:58;;;;;;;;;;;;;;;4.74;91.70;101399.72;5036587;28;19933;-86
2022/02/07 14:06:27;;;;;;;;;;;;;;;4.76;92.39;101392.00;5013754;28;19933;-85
2022/02/07 14:08:57;;;;;;;;;;;;;;;4.70;92.74;101412.56;5020442;28;19955;-87
2022/02/07 14:11:31;;;;;;;;;;;;;;;4.66;93.39;101409.00;5024926;28;19940;-86
2022/02/07 14:14:01;;;;;;;;;;;;;;;4.63;92.80;101409.78;5010411;28;20431;-86
2022/02/07 14:16:29;;;;;;;;;;;;;;;4.63;93.17;101425.34;5042032;28;19939;-86
2022/02/07 14:18:56;;;;;;;;;;;;;;;4.67;93.33;101426.31;5028421;28;20402;-85
2022/02/07 14:21:26;;;;;;;;;;;;;;;4.70;93.01;101433.31;5019508;28;19933;-85
2022/02/07 14:23:54;;;;;;;;;;;;;;;4.70;93.13;101434.19;5007081;28;19936;-85
2022/02/07 14:26:23;;;;;;;;;;;;;;;4.72;92.76;101436.81;5005754;28;19945;-85
2022/02/07 14:28:52;;;;;;;;;;;;;;;4.71;92.28;101454.09;5021227;28;19936;-85
2022/02/07 14:31:20;;;;;;;;;;;;;;;4.71;90.26;101437.69;5007809;28;19990;-86